Date,TemperatureHighF,TemperatureAvgF,TemperatureLowF,DewpointHighF,DewpointAvgF,DewpointLowF,HumidityHigh,HumidityAvg,HumidityLow,PressureMaxIn,PressureMinIn,WindSpeedMaxMPH,WindSpeedAvgMPH,GustSpeedMaxMPH,PrecipitationSumIn
2013-9-1,86,79,73,77,72,70,97,81,62,29.84,29.77,4,0,8,1.98
2013-9-2,81,77,74,76,72,69,98,87,71,29.79,29.69,2,0,3,0.13
2013-9-3,82,74,67,72,62,52,98,70,39,29.87,29.69,7,2,11,0.04
2013-9-4,82,72,61,60,56,46,91,61,33,29.98,29.86,6,1,9,0.00
2013-9-5,78,70,59,60,50,34,87,54,23,30.13,29.90,5,2,12,0.00
2013-9-6,72,62,50,49,42,34,80,52,26,30.23,30.11,4,1,7,0.00
2013-9-7,80,65,49,51,47,38,94,58,24,30.11,29.88,3,0,5,0.00
2013-9-8,82,72,60,63,52,35,73,51,23,30.05,29.80,8,2,18,0.00
2013-9-9,73,63,51,59,48,41,84,61,31,30.21,30.06,3,1,9,0.00
2013-9-10,87,76,68,72,67,59,88,74,58,30.14,30.03,4,2,10,0.00
2013-9-11,96,85,74,74,72,68,92,66,45,30.09,29.95,5,1,8,0.00
2013-9-12,90,80,73,73,71,64,85,73,55,29.97,29.67,8,1,14,0.47
2013-9-13,78,69,58,68,60,48,99,77,44,29.83,29.61,6,2,10,0.08
2013-9-14,67,59,52,48,46,44,80,62,45,30.10,29.83,7,2,10,0.00
2013-9-15,72,60,46,53,45,36,95,62,27,30.19,30.06,3,0,5,0.00
2013-9-16,73,63,56,58,52,46,93,72,41,30.22,30.00,7,2,10,0.01
2013-9-17,65,56,46,46,38,33,83,55,32,30.40,30.22,6,2,11,0.00
2013-9-18,72,58,43,53,44,33,97,65,26,30.33,30.16,2,0,6,0.00
2013-9-19,78,63,48,55,48,41,96,65,28,30.16,30.04,2,0,5,0.00
2013-9-20,81,64,51,58,54,50,98,72,37,30.06,29.97,3,0,7,0.00
2013-9-21,78,66,53,68,61,52,97,83,54,29.99,29.63,7,1,13,0.28
2013-9-22,70,63,54,68,51,40,98,69,39,29.90,29.63,7,2,16,0.33
2013-9-23,66,56,47,44,41,38,86,59,36,30.02,29.90,7,2,11,0.00
2013-9-24,74,58,42,45,41,36,93,58,25,30.03,29.85,5,1,10,0.00
2013-9-25,74,60,45,53,45,37,94,62,29,29.93,29.85,4,1,6,0.00
2013-9-26,71,61,51,58,53,49,97,76,52,30.08,29.91,4,1,7,0.00
2013-9-27,69,59,50,54,51,48,95,76,51,30.24,30.08,4,1,7,0.00
2013-9-28,74,62,52,54,51,46,95,70,40,30.30,30.21,4,1,8,0.00
2013-9-29,73,60,50,59,52,48,98,77,46,30.21,30.05,3,1,6,0.00
2013-9-30,75,61,48,56,51,47,98,72,37,30.07,29.94,4,0,5,0.00